createdAt,value
2022-11-27T00:01:19.627Z,8.53
2022-11-27T00:03:47.819Z,7.90
2022-11-27T00:06:17.836Z,6.50
2022-11-27T00:09:07.383Z,6.53
2022-11-27T00:11:35.544Z,5.70
2022-11-27T00:14:03.302Z,5.40
2022-11-27T00:16:31.216Z,5.60
2022-11-27T00:18:59.498Z,5.40
2022-11-27T00:21:32.478Z,5.40
2022-11-27T00:24:03.613Z,5.70
2022-11-27T00:26:37.463Z,5.73
2022-11-27T00:29:06.136Z,5.57
2022-11-27T00:31:35.046Z,5.53
2022-11-27T00:34:04.737Z,5.33
2022-11-27T00:36:35.293Z,5.50
2022-11-27T00:39:05.465Z,5.00
2022-11-27T00:41:33.663Z,5.43
2022-11-27T00:44:01.504Z,5.50
2022-11-27T00:46:32.070Z,5.60
2022-11-27T00:49:01.094Z,5.30
2022-11-27T00:51:29.601Z,5.13
2022-11-27T00:53:57.413Z,5.10
2022-11-27T00:56:28.872Z,5.60
2022-11-27T00:58:57.251Z,5.53
2022-11-27T01:01:27.524Z,5.10
2022-11-27T01:03:56.526Z,5.23
2022-11-27T01:06:24.403Z,5.07
2022-11-27T01:08:52.184Z,4.70
2022-11-27T01:11:22.894Z,4.83
2022-11-27T01:13:52.541Z,4.77
2022-11-27T01:16:22.818Z,5.80
2022-11-27T01:18:51.821Z,6.10
2022-11-27T01:21:21.415Z,5.63
2022-11-27T01:23:50.357Z,4.80
2022-11-27T01:26:19.573Z,5.03
2022-11-27T01:28:48.127Z,4.00
2022-11-27T01:31:19.717Z,4.63
2022-11-27T01:33:48.076Z,4.60
2022-11-27T01:36:16.913Z,4.10
2022-11-27T01:38:44.692Z,4.50
2022-11-27T01:41:16.259Z,4.60
2022-11-27T01:43:46.024Z,4.20
2022-11-27T01:46:31.671Z,4.37
2022-11-27T01:49:06.270Z,4.40
2022-11-27T01:51:34.047Z,4.17
2022-11-27T01:54:01.916Z,4.57
2022-11-27T01:56:30.948Z,4.10
2022-11-27T01:59:00.638Z,3.77
2022-11-27T02:01:29.854Z,4.03
2022-11-27T02:04:01.608Z,4.23
2022-11-27T02:06:29.869Z,3.77
2022-11-27T02:08:57.907Z,3.83
2022-11-27T02:11:32.167Z,4.00
2022-11-27T02:14:11.858Z,3.90
2022-11-27T02:16:47.258Z,3.80
2022-11-27T02:19:25.288Z,3.87
2022-11-27T02:22:00.359Z,3.80
2022-11-27T02:24:53.620Z,4.07
2022-11-27T02:27:39.874Z,3.77
2022-11-27T02:30:10.624Z,3.97
2022-11-27T02:32:43.909Z,3.93
2022-11-27T02:35:18.853Z,4.50
2022-11-27T02:37:50.188Z,4.20
2022-11-27T02:40:24.319Z,4.10
2022-11-27T02:42:57.339Z,4.30
2022-11-27T02:45:31.339Z,3.70
2022-11-27T02:48:00.548Z,4.07
2022-11-27T02:50:31.830Z,4.10
2022-11-27T02:53:02.761Z,4.50
2022-11-27T02:55:34.413Z,5.13
2022-11-27T02:58:04.666Z,4.97
2022-11-27T03:00:36.036Z,4.90
2022-11-27T03:03:09.574Z,4.47
2022-11-27T03:05:41.861Z,4.50
2022-11-27T03:08:14.858Z,4.77
2022-11-27T03:10:47.314Z,4.23
2022-11-27T03:13:15.342Z,4.77
2022-11-27T03:15:57.968Z,4.20
2022-11-27T03:18:36.086Z,4.43
2022-11-27T03:21:11.440Z,4.20
2022-11-27T03:23:39.426Z,4.30
2022-11-27T03:26:07.232Z,4.60
2022-11-27T03:28:36.549Z,4.27
2022-11-27T03:31:06.259Z,4.10
2022-11-27T03:33:34.310Z,3.70
2022-11-27T03:36:02.091Z,3.80
2022-11-27T03:38:29.843Z,4.27
2022-11-27T03:41:04.569Z,3.80
2022-11-27T03:43:37.068Z,3.70
2022-11-27T03:46:11.343Z,4.00
2022-11-27T03:48:48.017Z,3.63
2022-11-27T03:51:24.219Z,3.30
2022-11-27T03:53:59.477Z,3.43
2022-11-27T03:56:36.191Z,3.33
2022-11-27T03:59:09.697Z,3.20
2022-11-27T04:01:40.417Z,3.43
2022-11-27T04:04:08.792Z,3.37
2022-11-27T04:06:36.784Z,3.60
2022-11-27T04:09:04.840Z,3.60
2022-11-27T04:11:32.627Z,3.47
2022-11-27T04:14:01.106Z,3.10
2022-11-27T04:16:28.939Z,3.20
2022-11-27T04:18:58.176Z,3.30
2022-11-27T04:21:26.258Z,3.10
2022-11-27T04:23:54.032Z,3.37
2022-11-27T04:26:21.928Z,3.30
2022-11-27T04:28:49.748Z,3.27
2022-11-27T04:31:17.602Z,3.53
2022-11-27T04:33:45.389Z,3.17
2022-11-27T04:36:14.500Z,3.30
2022-11-27T04:38:42.245Z,2.93
2022-11-27T04:41:10.023Z,2.73
2022-11-27T04:43:37.775Z,3.17
2022-11-27T04:46:05.780Z,3.00
2022-11-27T04:48:33.694Z,3.30
2022-11-27T04:51:01.507Z,3.07
2022-11-27T04:53:30.680Z,3.10
2022-11-27T04:55:58.407Z,2.83
2022-11-27T04:58:26.179Z,2.73
2022-11-27T05:00:53.966Z,3.00
2022-11-27T05:03:21.878Z,2.80
2022-11-27T05:05:56.326Z,3.10
2022-11-27T05:08:24.137Z,2.90
2022-11-27T05:11:01.918Z,2.63
2022-11-27T05:13:29.694Z,2.70
2022-11-27T05:15:57.575Z,2.87
2022-11-27T05:18:25.784Z,2.70
2022-11-27T05:20:58.926Z,3.20
2022-11-27T05:23:27.119Z,2.90
2022-11-27T05:25:55.295Z,2.97
2022-11-27T05:28:26.855Z,2.87
2022-11-27T05:30:55.052Z,2.63
2022-11-27T05:33:23.000Z,2.80
2022-11-27T05:35:50.759Z,2.63
2022-11-27T05:38:18.523Z,3.00
2022-11-27T05:40:46.291Z,2.80
2022-11-27T05:43:14.031Z,2.67
2022-11-27T05:45:43.536Z,2.50
2022-11-27T05:48:11.307Z,2.50
2022-11-27T05:50:39.077Z,2.60
2022-11-27T05:53:06.921Z,2.50
2022-11-27T05:55:34.672Z,2.57
2022-11-27T05:58:02.450Z,2.70
2022-11-27T06:00:30.285Z,2.73
2022-11-27T06:02:59.529Z,2.63
2022-11-27T06:05:27.373Z,2.57
2022-11-27T06:07:55.256Z,2.77
2022-11-27T06:10:23.069Z,2.30
2022-11-27T06:12:51.219Z,2.50
2022-11-27T06:15:19.212Z,2.40
2022-11-27T06:17:46.970Z,2.90
2022-11-27T06:20:16.507Z,3.40
2022-11-27T06:22:44.388Z,3.43
2022-11-27T06:25:12.194Z,2.50
2022-11-27T06:27:40.094Z,2.43
2022-11-27T06:30:09.890Z,2.30
2022-11-27T06:32:37.691Z,2.63
2022-11-27T06:35:06.285Z,2.40
2022-11-27T06:37:35.412Z,2.40
2022-11-27T06:40:03.532Z,2.70
2022-11-27T06:42:31.825Z,2.50
2022-11-27T06:44:59.591Z,2.77
2022-11-27T06:47:27.350Z,2.60
2022-11-27T06:49:55.201Z,2.60
2022-11-27T06:52:22.985Z,2.57
2022-11-27T06:54:52.161Z,2.87
2022-11-27T06:57:19.930Z,2.63
2022-11-27T06:59:47.723Z,4.53
2022-11-27T07:02:15.698Z,3.53
2022-11-27T07:04:43.502Z,2.90
2022-11-27T07:07:11.315Z,2.90
2022-11-27T07:09:39.121Z,2.80
2022-11-27T07:12:09.093Z,2.33
2022-11-27T07:14:36.843Z,2.90
2022-11-27T07:17:04.620Z,2.87
2022-11-27T07:19:32.394Z,2.63
2022-11-27T07:22:00.170Z,4.03
2022-11-27T07:24:27.965Z,3.07
2022-11-27T07:26:56.018Z,3.20
2022-11-27T07:29:25.435Z,2.80
2022-11-27T07:31:53.293Z,4.23
2022-11-27T07:34:21.914Z,3.10
2022-11-27T07:36:49.868Z,5.47
2022-11-27T07:39:33.898Z,5.30
2022-11-27T07:42:36.501Z,5.60
2022-11-27T07:44:57.311Z,4.03
2022-11-27T07:47:25.181Z,4.13
2022-11-27T07:49:55.062Z,3.37
2022-11-27T07:52:22.857Z,3.80
2022-11-27T07:54:50.807Z,3.37
2022-11-27T07:57:18.586Z,3.97
2022-11-27T07:59:47.706Z,4.13
2022-11-27T08:02:17.351Z,3.67
2022-11-27T08:04:45.307Z,3.87
2022-11-27T08:07:13.644Z,3.73
2022-11-27T08:09:41.521Z,3.67
2022-11-27T08:12:09.306Z,3.67
2022-11-27T08:14:37.193Z,3.40
2022-11-27T08:17:05.022Z,3.10
2022-11-27T08:19:34.138Z,2.93
2022-11-27T08:22:01.878Z,3.03
2022-11-27T08:24:29.936Z,3.00
2022-11-27T08:26:57.714Z,2.83
2022-11-27T08:29:29.889Z,2.80
2022-11-27T08:32:00.480Z,3.27
2022-11-27T08:34:28.349Z,3.50
2022-11-27T08:36:57.570Z,3.10
2022-11-27T08:39:26.583Z,3.57
2022-11-27T08:41:55.108Z,3.27
2022-11-27T08:44:22.975Z,4.20
2022-11-27T08:46:50.748Z,5.83
2022-11-27T08:49:18.771Z,4.50
2022-11-27T08:51:46.554Z,6.27
2022-11-27T08:54:15.764Z,4.63
2022-11-27T08:56:43.751Z,6.67
2022-11-27T08:59:11.596Z,5.13
2022-11-27T09:01:39.561Z,4.60
2022-11-27T09:04:07.462Z,5.33
2022-11-27T09:06:36.220Z,6.30
2022-11-27T09:09:06.225Z,4.10
2022-11-27T09:11:36.799Z,4.87
2022-11-27T09:14:06.025Z,4.30
2022-11-27T09:16:34.119Z,4.43
2022-11-27T09:19:02.404Z,4.53
2022-11-27T09:21:31.570Z,4.70
2022-11-27T09:24:00.748Z,5.80
2022-11-27T09:26:29.471Z,4.43
2022-11-27T09:28:59.598Z,4.37
2022-11-27T09:31:27.625Z,3.67
2022-11-27T09:33:55.586Z,3.73
2022-11-27T09:36:25.829Z,3.80
2022-11-27T09:38:54.430Z,4.60
2022-11-27T09:41:40.510Z,4.03
2022-11-27T09:44:23.538Z,5.03
2022-11-27T09:46:52.287Z,3.93
2022-11-27T09:49:23.910Z,4.63
2022-11-27T09:51:57.486Z,4.07
2022-11-27T09:54:29.583Z,4.60
2022-11-27T09:56:59.033Z,4.30
2022-11-27T09:59:34.602Z,3.80
2022-11-27T10:02:02.596Z,3.97
2022-11-27T10:04:51.039Z,5.50
2022-11-27T10:07:31.104Z,4.70
2022-11-27T10:10:09.809Z,5.00
2022-11-27T10:12:48.758Z,4.10
2022-11-27T10:15:23.926Z,4.30
2022-11-27T10:17:58.887Z,4.23
2022-11-27T10:20:33.192Z,3.80
2022-11-27T10:23:06.577Z,3.73
2022-11-27T10:25:42.019Z,8.20
2022-11-27T10:28:20.908Z,5.20
2022-11-27T10:30:56.820Z,7.70
2022-11-27T10:33:38.826Z,4.40
2022-11-27T10:36:12.037Z,3.10
2022-11-27T10:38:41.147Z,3.17
2022-11-27T10:41:34.347Z,2.70
2022-11-27T10:44:22.849Z,3.10
2022-11-27T10:46:54.047Z,3.00
2022-11-27T10:49:21.895Z,2.97
2022-11-27T10:51:49.687Z,2.73
2022-11-27T10:54:24.619Z,2.60
2022-11-27T10:57:08.020Z,2.93
2022-11-27T10:59:39.146Z,3.23
2022-11-27T11:02:27.184Z,3.20
2022-11-27T11:05:24.144Z,3.20
2022-11-27T11:07:43.692Z,3.20
2022-11-27T11:10:26.762Z,3.13
2022-11-27T11:13:22.800Z,3.87
2022-11-27T11:15:56.941Z,3.63
2022-11-27T11:18:28.030Z,4.73
2022-11-27T11:20:58.408Z,3.97
2022-11-27T11:23:36.700Z,4.27
2022-11-27T11:26:08.907Z,5.43
2022-11-27T11:28:51.111Z,4.37
2022-11-27T11:31:22.229Z,4.23
2022-11-27T11:33:56.400Z,4.60
2022-11-27T11:36:24.390Z,4.07
2022-11-27T11:38:53.382Z,4.53
2022-11-27T11:41:21.766Z,5.10
2022-11-27T11:44:02.146Z,4.80
2022-11-27T11:46:32.820Z,5.00
2022-11-27T11:49:06.632Z,4.90
2022-11-27T11:51:46.935Z,5.80
2022-11-27T11:54:24.907Z,5.50
2022-11-27T11:56:53.570Z,6.30
2022-11-27T11:59:32.717Z,6.00
2022-11-27T12:02:24.167Z,6.37
2022-11-27T12:05:25.703Z,6.50
2022-11-27T12:08:06.334Z,6.20
2022-11-27T12:10:45.659Z,6.10
2022-11-27T12:13:31.695Z,6.07
2022-11-27T12:16:07.702Z,6.03
2022-11-27T12:18:54.432Z,5.77
2022-11-27T12:21:36.066Z,6.20
2022-11-27T12:24:18.182Z,6.43
2022-11-27T12:27:00.884Z,5.93
2022-11-27T12:29:50.350Z,6.33
2022-11-27T12:32:55.460Z,6.30
2022-11-27T12:35:32.245Z,6.30
2022-11-27T12:38:14.663Z,8.13
2022-11-27T12:40:55.949Z,6.17
2022-11-27T12:43:26.462Z,6.27
2022-11-27T12:46:01.997Z,5.57
2022-11-27T12:48:37.040Z,6.20
2022-11-27T12:51:09.115Z,5.70
2022-11-27T12:53:42.476Z,5.40
2022-11-27T12:56:17.079Z,6.20
2022-11-27T12:58:49.647Z,5.63
2022-11-27T13:01:26.704Z,5.60
2022-11-27T13:04:11.998Z,6.00
2022-11-27T13:06:49.804Z,5.50
2022-11-27T13:09:25.674Z,5.57
2022-11-27T13:11:55.025Z,5.63
2022-11-27T13:14:25.059Z,5.50
2022-11-27T13:16:56.531Z,5.83
2022-11-27T13:19:29.831Z,5.57
2022-11-27T13:21:58.935Z,6.10
2022-11-27T13:24:29.954Z,6.13
2022-11-27T13:27:04.754Z,5.63
2022-11-27T13:29:41.395Z,5.83
2022-11-27T13:32:11.242Z,5.57
2022-11-27T13:34:46.725Z,6.33
2022-11-27T13:37:27.949Z,5.70
2022-11-27T13:40:03.940Z,6.70
2022-11-27T13:42:34.764Z,6.13
2022-11-27T13:45:06.014Z,6.30
2022-11-27T13:47:39.920Z,6.07
2022-11-27T13:50:11.656Z,6.30
2022-11-27T13:52:51.683Z,6.47
2022-11-27T13:55:27.237Z,6.53
2022-11-27T13:57:55.974Z,6.60
2022-11-27T14:00:35.283Z,6.77
2022-11-27T14:03:04.065Z,7.50
2022-11-27T14:05:40.128Z,6.83
2022-11-27T14:08:20.059Z,12.00
2022-11-27T14:10:57.287Z,7.27
2022-11-27T14:13:36.162Z,7.93
2022-11-27T14:16:11.043Z,7.40
2022-11-27T14:18:39.085Z,7.63
2022-11-27T14:21:07.108Z,7.50
2022-11-27T14:23:37.969Z,8.27
2022-11-27T14:26:19.871Z,8.10
2022-11-27T14:28:51.057Z,7.60
2022-11-27T14:31:30.090Z,7.47
2022-11-27T14:36:47.298Z,8.23
2022-11-27T14:39:23.194Z,8.03
2022-11-27T14:41:59.520Z,8.13
2022-11-27T14:44:27.567Z,8.70
2022-11-27T14:46:57.591Z,8.70
2022-11-27T14:49:27.765Z,8.87
2022-11-27T14:51:59.070Z,9.67
2022-11-27T14:54:29.398Z,9.70
2022-11-27T14:56:59.438Z,9.87
2022-11-27T14:59:27.627Z,10.47
2022-11-27T15:02:04.169Z,9.33
2022-11-27T15:04:36.438Z,10.60
2022-11-27T15:07:08.198Z,10.40
2022-11-27T15:09:37.293Z,11.50
2022-11-27T15:12:16.456Z,10.07
2022-11-27T15:14:52.909Z,10.60
2022-11-27T15:17:26.425Z,10.07
2022-11-27T15:19:56.829Z,10.80
2022-11-27T15:22:25.595Z,11.40
2022-11-27T15:25:00.516Z,10.60
2022-11-27T15:27:33.584Z,11.37
2022-11-27T15:30:13.812Z,11.93
2022-11-27T15:32:52.270Z,10.80
2022-11-27T15:35:27.541Z,11.53
2022-11-27T15:37:57.750Z,11.40
2022-11-27T15:40:36.032Z,11.13
2022-11-27T15:43:11.516Z,11.07
2022-11-27T15:45:40.287Z,10.67
2022-11-27T15:48:16.485Z,10.63
2022-11-27T15:50:49.836Z,11.07
2022-11-27T15:53:19.613Z,12.87
2022-11-27T15:55:48.918Z,12.43
2022-11-27T15:58:18.226Z,12.10
2022-11-27T16:00:46.127Z,11.43
2022-11-27T16:03:15.577Z,11.87
2022-11-27T16:05:44.016Z,11.70
2022-11-27T16:08:12.249Z,13.23
2022-11-27T16:10:41.108Z,11.20
2022-11-27T16:13:08.942Z,10.63
2022-11-27T16:15:38.450Z,11.30
2022-11-27T16:18:07.357Z,10.60
2022-11-27T16:20:35.313Z,10.50
2022-11-27T16:23:03.150Z,10.90
2022-11-27T16:25:30.941Z,9.50
2022-11-27T16:28:03.084Z,10.60
2022-11-27T16:30:31.430Z,10.33
2022-11-27T16:33:00.933Z,9.83
2022-11-27T16:35:29.618Z,10.00
2022-11-27T16:37:57.939Z,10.30
2022-11-27T16:40:31.056Z,9.10
2022-11-27T16:42:59.424Z,10.00
2022-11-27T16:45:27.666Z,10.37
2022-11-27T16:47:55.772Z,11.13
2022-11-27T16:50:26.633Z,11.10
2022-11-27T16:52:55.459Z,10.20
2022-11-27T16:55:25.742Z,10.40
2022-11-27T16:57:53.647Z,9.67
2022-11-27T17:00:22.083Z,9.17
2022-11-27T17:02:50.192Z,8.93
2022-11-27T17:05:18.463Z,8.07
2022-11-27T17:07:47.697Z,7.97
2022-11-27T17:10:15.593Z,8.77
2022-11-27T17:12:43.415Z,11.97
2022-11-27T17:15:13.289Z,8.53
2022-11-27T17:17:42.737Z,8.27
2022-11-27T17:20:10.949Z,8.50
2022-11-27T17:22:38.961Z,8.97
2022-11-27T17:25:11.235Z,8.73
2022-11-27T17:27:39.947Z,8.53
2022-11-27T17:30:09.813Z,9.17
2022-11-27T17:32:37.656Z,9.87
2022-11-27T17:35:11.795Z,8.80
2022-11-27T17:37:39.661Z,10.27
2022-11-27T17:40:10.458Z,10.17
2022-11-27T17:42:38.535Z,9.30
2022-11-27T17:45:07.110Z,10.03
2022-11-27T17:47:35.099Z,9.67
2022-11-27T17:50:03.788Z,8.80
2022-11-27T17:52:31.820Z,9.70
2022-11-27T17:54:59.704Z,8.77
2022-11-27T17:57:28.867Z,8.57
2022-11-27T17:59:57.387Z,8.93
2022-11-27T18:02:25.530Z,9.97
2022-11-27T18:04:53.633Z,9.50
2022-11-27T18:07:21.575Z,9.17
2022-11-27T18:09:54.150Z,8.97
2022-11-27T18:12:22.562Z,10.23
2022-11-27T18:14:57.929Z,9.93
2022-11-27T18:17:30.193Z,9.77
2022-11-27T18:19:59.026Z,10.33
2022-11-27T18:22:27.062Z,10.43
2022-11-27T18:24:54.929Z,10.03
2022-11-27T18:27:22.849Z,10.63
2022-11-27T18:29:51.022Z,10.00
2022-11-27T18:32:20.460Z,12.33
2022-11-27T18:34:48.377Z,10.80
2022-11-27T18:37:16.141Z,12.13
2022-11-27T18:39:45.333Z,10.90
2022-11-27T18:42:13.644Z,10.50
2022-11-27T18:44:44.769Z,9.57
2022-11-27T18:47:14.112Z,11.37
2022-11-27T18:49:44.479Z,10.63
2022-11-27T18:52:13.429Z,10.73
2022-11-27T18:54:41.760Z,11.27
2022-11-27T18:57:11.026Z,11.57
2022-11-27T18:59:40.244Z,11.03
2022-11-27T19:02:09.132Z,10.93
2022-11-27T19:04:37.508Z,11.33
2022-11-27T19:07:09.456Z,13.57
2022-11-27T19:09:37.568Z,11.47
2022-11-27T19:12:06.087Z,11.30
2022-11-27T19:14:34.795Z,11.40
2022-11-27T19:17:02.658Z,15.40
2022-11-27T19:22:22.387Z,11.37
2022-11-27T19:24:50.264Z,12.47
2022-11-27T19:27:19.302Z,11.97
2022-11-27T19:29:48.953Z,11.57
2022-11-27T19:32:16.952Z,10.90
2022-11-27T19:34:44.872Z,11.00
2022-11-27T19:37:13.034Z,10.87
2022-11-27T19:39:42.372Z,11.67
2022-11-27T19:42:10.291Z,11.93
2022-11-27T19:44:38.833Z,11.63
2022-11-27T19:47:09.436Z,11.20
2022-11-27T19:49:39.500Z,10.70
2022-11-27T19:52:08.737Z,10.60
2022-11-27T19:54:39.770Z,11.30
2022-11-27T19:57:12.522Z,12.07
2022-11-27T19:59:43.005Z,16.63
2022-11-27T20:02:16.018Z,13.40
2022-11-27T20:04:44.310Z,12.20
2022-11-27T20:07:12.417Z,12.37
2022-11-27T20:09:40.367Z,12.23
2022-11-27T20:12:09.952Z,13.03
2022-11-27T20:14:40.169Z,13.10
2022-11-27T20:17:10.333Z,12.70
2022-11-27T20:19:40.179Z,13.67
2022-11-27T20:22:10.164Z,13.17
2022-11-27T20:24:58.420Z,13.17
2022-11-27T20:27:31.090Z,13.70
2022-11-27T20:30:00.236Z,13.37
2022-11-27T20:32:30.230Z,12.90
2022-11-27T20:35:00.757Z,13.23
2022-11-27T20:37:31.043Z,11.43
2022-11-27T20:39:58.995Z,12.70
2022-11-27T20:42:26.935Z,13.03
2022-11-27T20:44:56.219Z,12.70
2022-11-27T20:47:25.439Z,13.33
2022-11-27T20:49:53.857Z,12.93
2022-11-27T20:52:24.789Z,14.30
2022-11-27T20:54:58.079Z,13.77
2022-11-27T20:57:27.112Z,13.50
2022-11-27T20:59:59.631Z,13.60
2022-11-27T21:02:30.580Z,14.43
2022-11-27T21:04:59.417Z,14.63
2022-11-27T21:07:27.654Z,13.97
2022-11-27T21:09:55.573Z,15.17
2022-11-27T21:12:23.755Z,14.63
2022-11-27T21:14:53.284Z,14.93
2022-11-27T21:17:22.947Z,14.70
2022-11-27T21:19:50.873Z,15.97
2022-11-27T21:22:18.798Z,15.53
2022-11-27T21:24:46.693Z,15.43
2022-11-27T21:27:14.683Z,14.80
2022-11-27T21:29:42.852Z,14.37
2022-11-27T21:32:14.623Z,15.63
2022-11-27T21:34:44.334Z,15.53
2022-11-27T21:37:12.429Z,14.83
2022-11-27T21:39:45.352Z,13.60
2022-11-27T21:42:16.113Z,14.27
2022-11-27T21:44:44.399Z,14.27
2022-11-27T21:47:16.469Z,15.03
2022-11-27T21:49:48.895Z,15.30
2022-11-27T21:52:18.856Z,15.03
2022-11-27T21:54:51.021Z,15.53
2022-11-27T21:57:20.750Z,15.50
2022-11-27T21:59:48.821Z,15.40
2022-11-27T22:02:17.600Z,15.90
2022-11-27T22:04:48.017Z,15.17
2022-11-27T22:07:18.438Z,15.13
2022-11-27T22:09:46.455Z,15.73
2022-11-27T22:12:14.286Z,14.57
2022-11-27T22:14:43.616Z,15.50
2022-11-27T22:17:11.928Z,15.10
2022-11-27T22:19:42.322Z,14.77
2022-11-27T22:22:11.559Z,14.43
2022-11-27T22:24:39.781Z,14.70
2022-11-27T22:27:08.034Z,14.37
2022-11-27T22:29:36.013Z,14.27
2022-11-27T22:32:05.155Z,14.40
2022-11-27T22:34:33.294Z,14.57
2022-11-27T22:37:02.002Z,13.37
2022-11-27T22:39:31.856Z,13.13
2022-11-27T22:42:00.316Z,12.93
2022-11-27T22:44:28.131Z,12.93
2022-11-27T22:46:56.357Z,13.33
2022-11-27T22:49:29.902Z,13.47
2022-11-27T22:51:57.705Z,13.50
2022-11-27T22:54:25.514Z,13.70
2022-11-27T22:56:55.436Z,13.13
2022-11-27T22:59:32.256Z,13.60
2022-11-27T23:02:02.892Z,12.60
2022-11-27T23:04:31.169Z,12.87
2022-11-27T23:06:59.122Z,13.07
2022-11-27T23:09:27.037Z,13.20
2022-11-27T23:11:56.922Z,13.17
2022-11-27T23:14:24.863Z,12.73
2022-11-27T23:16:52.682Z,13.20
2022-11-27T23:19:21.076Z,13.23
2022-11-27T23:21:48.980Z,13.30
2022-11-27T23:24:16.783Z,11.77
2022-11-27T23:26:45.827Z,12.23
2022-11-27T23:29:15.626Z,13.60
2022-11-27T23:31:43.860Z,12.07
2022-11-27T23:34:15.347Z,11.80
2022-11-27T23:36:43.688Z,11.90
2022-11-27T23:39:13.684Z,13.17
2022-11-27T23:41:41.621Z,12.43
2022-11-27T23:44:10.708Z,12.13
2022-11-27T23:46:39.901Z,11.83
2022-11-27T23:49:07.768Z,12.33
2022-11-27T23:51:36.081Z,12.20
2022-11-27T23:54:09.052Z,12.07
2022-11-27T23:56:37.782Z,12.53
2022-11-27T23:59:05.664Z,12.17
